sensor_id;sensor_type;location;lat;lon;timestamp;temperature;humidity
18260;DHT22;9256;52.236;5.712;2023-07-08T00:00:50;18.60;99.90
18260;DHT22;9256;52.236;5.712;2023-07-08T00:03:17;18.50;99.90
18260;DHT22;9256;52.236;5.712;2023-07-08T00:05:48;18.40;99.90
18260;DHT22;9256;52.236;5.712;2023-07-08T00:08:17;18.50;99.90
18260;DHT22;9256;52.236;5.712;2023-07-08T00:10:46;18.50;99.90
18260;DHT22;9256;52.236;5.712;2023-07-08T00:13:13;18.30;99.90
18260;DHT22;9256;52.236;5.712;2023-07-08T00:15:41;18.30;99.90
18260;DHT22;9256;52.236;5.712;2023-07-08T00:18:12;18.30;99.90
18260;DHT22;9256;52.236;5.712;2023-07-08T00:20:42;18.30;99.90
18260;DHT22;9256;52.236;5.712;2023-07-08T00:23:10;18.20;99.90
18260;DHT22;9256;52.236;5.712;2023-07-08T00:25:37;18.20;99.90
18260;DHT22;9256;52.236;5.712;2023-07-08T00:28:08;18.20;99.90
18260;DHT22;9256;52.236;5.712;2023-07-08T00:30:35;18.20;99.90
18260;DHT22;9256;52.236;5.712;2023-07-08T00:33:05;18.20;99.90
18260;DHT22;9256;52.236;5.712;2023-07-08T00:35:34;18.20;99.90
18260;DHT22;9256;52.236;5.712;2023-07-08T00:38:02;18.30;99.90
18260;DHT22;9256;52.236;5.712;2023-07-08T00:40:30;18.20;99.90
18260;DHT22;9256;52.236;5.712;2023-07-08T00:43:00;18.30;99.90
18260;DHT22;9256;52.236;5.712;2023-07-08T00:45:38;18.20;99.90
18260;DHT22;9256;52.236;5.712;2023-07-08T00:48:19;18.20;99.90
18260;DHT22;9256;52.236;5.712;2023-07-08T00:50:50;18.00;99.90
18260;DHT22;9256;52.236;5.712;2023-07-08T00:53:23;18.00;99.90
18260;DHT22;9256;52.236;5.712;2023-07-08T00:55:51;17.90;99.90
18260;DHT22;9256;52.236;5.712;2023-07-08T00:58:21;17.80;99.90
18260;DHT22;9256;52.236;5.712;2023-07-08T01:00:48;17.90;99.90
18260;DHT22;9256;52.236;5.712;2023-07-08T01:03:18;17.80;99.90
18260;DHT22;9256;52.236;5.712;2023-07-08T01:05:46;17.90;99.90
18260;DHT22;9256;52.236;5.712;2023-07-08T01:08:14;17.90;99.90
18260;DHT22;9256;52.236;5.712;2023-07-08T01:10:47;18.00;99.90
18260;DHT22;9256;52.236;5.712;2023-07-08T01:13:16;17.80;99.90
18260;DHT22;9256;52.236;5.712;2023-07-08T01:15:47;17.90;99.90
18260;DHT22;9256;52.236;5.712;2023-07-08T01:18:18;17.90;99.90
18260;DHT22;9256;52.236;5.712;2023-07-08T01:20:47;18.00;99.90
18260;DHT22;9256;52.236;5.712;2023-07-08T01:23:15;17.80;99.90
18260;DHT22;9256;52.236;5.712;2023-07-08T01:25:43;17.80;99.90
18260;DHT22;9256;52.236;5.712;2023-07-08T01:28:12;17.90;99.90
18260;DHT22;9256;52.236;5.712;2023-07-08T01:30:40;17.90;99.90
18260;DHT22;9256;52.236;5.712;2023-07-08T01:33:15;17.90;99.90
18260;DHT22;9256;52.236;5.712;2023-07-08T01:35:43;17.80;99.90
18260;DHT22;9256;52.236;5.712;2023-07-08T01:38:11;17.80;99.90
18260;DHT22;9256;52.236;5.712;2023-07-08T01:40:49;17.70;99.90
18260;DHT22;9256;52.236;5.712;2023-07-08T01:43:16;17.70;99.90
18260;DHT22;9256;52.236;5.712;2023-07-08T01:45:43;17.70;99.90
18260;DHT22;9256;52.236;5.712;2023-07-08T01:48:13;17.80;99.90
18260;DHT22;9256;52.236;5.712;2023-07-08T01:50:44;17.70;99.90
18260;DHT22;9256;52.236;5.712;2023-07-08T01:53:15;17.60;99.90
18260;DHT22;9256;52.236;5.712;2023-07-08T01:55:43;17.60;99.90
18260;DHT22;9256;52.236;5.712;2023-07-08T01:58:10;17.60;99.90
18260;DHT22;9256;52.236;5.712;2023-07-08T02:00:37;17.60;99.90
18260;DHT22;9256;52.236;5.712;2023-07-08T02:03:04;17.50;99.90
18260;DHT22;9256;52.236;5.712;2023-07-08T02:05:31;17.50;99.90
18260;DHT22;9256;52.236;5.712;2023-07-08T02:07:58;17.50;99.90
18260;DHT22;9256;52.236;5.712;2023-07-08T02:10:25;17.50;99.90
18260;DHT22;9256;52.236;5.712;2023-07-08T02:12:53;17.50;99.90
18260;DHT22;9256;52.236;5.712;2023-07-08T02:15:20;17.60;99.90
18260;DHT22;9256;52.236;5.712;2023-07-08T02:17:47;17.50;99.90
18260;DHT22;9256;52.236;5.712;2023-07-08T02:20:15;17.40;99.90
18260;DHT22;9256;52.236;5.712;2023-07-08T02:22:42;17.40;99.90
18260;DHT22;9256;52.236;5.712;2023-07-08T02:25:09;17.30;99.90
18260;DHT22;9256;52.236;5.712;2023-07-08T02:27:36;17.20;99.90
18260;DHT22;9256;52.236;5.712;2023-07-08T02:30:06;17.40;99.90
18260;DHT22;9256;52.236;5.712;2023-07-08T02:32:33;17.40;99.90
18260;DHT22;9256;52.236;5.712;2023-07-08T02:35:01;17.20;99.90
18260;DHT22;9256;52.236;5.712;2023-07-08T02:37:29;17.20;99.90
18260;DHT22;9256;52.236;5.712;2023-07-08T02:39:56;17.10;99.90
18260;DHT22;9256;52.236;5.712;2023-07-08T02:42:23;17.10;99.90
18260;DHT22;9256;52.236;5.712;2023-07-08T02:44:50;17.10;99.90
18260;DHT22;9256;52.236;5.712;2023-07-08T02:47:18;17.00;99.90
18260;DHT22;9256;52.236;5.712;2023-07-08T02:49:45;17.10;99.90
18260;DHT22;9256;52.236;5.712;2023-07-08T02:52:12;17.10;99.90
18260;DHT22;9256;52.236;5.712;2023-07-08T02:54:39;17.10;99.90
18260;DHT22;9256;52.236;5.712;2023-07-08T02:57:06;17.10;99.90
18260;DHT22;9256;52.236;5.712;2023-07-08T02:59:33;17.00;99.90
18260;DHT22;9256;52.236;5.712;2023-07-08T03:02:00;17.10;99.90
18260;DHT22;9256;52.236;5.712;2023-07-08T03:04:28;17.00;99.90
18260;DHT22;9256;52.236;5.712;2023-07-08T03:06:55;17.00;99.90
18260;DHT22;9256;52.236;5.712;2023-07-08T03:09:22;17.10;99.90
18260;DHT22;9256;52.236;5.712;2023-07-08T03:11:49;17.00;99.90
18260;DHT22;9256;52.236;5.712;2023-07-08T03:14:16;17.00;99.90
18260;DHT22;9256;52.236;5.712;2023-07-08T03:16:43;16.90;99.90
18260;DHT22;9256;52.236;5.712;2023-07-08T03:19:11;16.90;99.90
18260;DHT22;9256;52.236;5.712;2023-07-08T03:21:41;16.80;99.90
18260;DHT22;9256;52.236;5.712;2023-07-08T03:24:09;16.80;99.90
18260;DHT22;9256;52.236;5.712;2023-07-08T03:26:37;16.80;99.90
18260;DHT22;9256;52.236;5.712;2023-07-08T03:29:05;16.70;99.90
18260;DHT22;9256;52.236;5.712;2023-07-08T03:31:32;16.70;99.90
18260;DHT22;9256;52.236;5.712;2023-07-08T03:33:59;16.70;99.90
18260;DHT22;9256;52.236;5.712;2023-07-08T03:36:26;16.70;99.90
18260;DHT22;9256;52.236;5.712;2023-07-08T03:38:56;16.70;99.90
18260;DHT22;9256;52.236;5.712;2023-07-08T03:41:23;16.70;99.90
18260;DHT22;9256;52.236;5.712;2023-07-08T03:43:50;16.60;99.90
18260;DHT22;9256;52.236;5.712;2023-07-08T03:46:20;16.70;99.90
18260;DHT22;9256;52.236;5.712;2023-07-08T03:48:48;16.70;99.90
18260;DHT22;9256;52.236;5.712;2023-07-08T03:51:20;16.60;99.90
18260;DHT22;9256;52.236;5.712;2023-07-08T03:53:48;16.60;99.90
18260;DHT22;9256;52.236;5.712;2023-07-08T03:56:16;16.70;99.90
18260;DHT22;9256;52.236;5.712;2023-07-08T03:58:43;16.70;99.90
18260;DHT22;9256;52.236;5.712;2023-07-08T04:01:13;16.70;99.90
18260;DHT22;9256;52.236;5.712;2023-07-08T04:03:41;16.80;99.90
18260;DHT22;9256;52.236;5.712;2023-07-08T04:06:07;16.80;99.90
18260;DHT22;9256;52.236;5.712;2023-07-08T04:08:34;16.90;99.90
18260;DHT22;9256;52.236;5.712;2023-07-08T04:11:02;16.90;99.90
18260;DHT22;9256;52.236;5.712;2023-07-08T04:13:31;16.90;99.90
18260;DHT22;9256;52.236;5.712;2023-07-08T04:16:00;16.90;99.90
18260;DHT22;9256;52.236;5.712;2023-07-08T04:18:27;17.00;99.90
18260;DHT22;9256;52.236;5.712;2023-07-08T04:20:54;16.90;99.90
18260;DHT22;9256;52.236;5.712;2023-07-08T04:23:22;17.00;99.90
18260;DHT22;9256;52.236;5.712;2023-07-08T04:25:50;16.90;99.90
18260;DHT22;9256;52.236;5.712;2023-07-08T04:28:19;16.90;99.90
18260;DHT22;9256;52.236;5.712;2023-07-08T04:30:48;16.90;99.90
18260;DHT22;9256;52.236;5.712;2023-07-08T04:33:15;16.90;99.90
18260;DHT22;9256;52.236;5.712;2023-07-08T04:35:43;17.00;99.90
18260;DHT22;9256;52.236;5.712;2023-07-08T04:38:16;17.00;99.90
18260;DHT22;9256;52.236;5.712;2023-07-08T04:40:43;17.00;99.90
18260;DHT22;9256;52.236;5.712;2023-07-08T04:43:10;17.00;99.90
18260;DHT22;9256;52.236;5.712;2023-07-08T04:45:38;17.10;99.90
18260;DHT22;9256;52.236;5.712;2023-07-08T04:48:07;17.20;99.90
18260;DHT22;9256;52.236;5.712;2023-07-08T04:50:39;17.20;99.90
18260;DHT22;9256;52.236;5.712;2023-07-08T04:53:06;17.40;99.90
18260;DHT22;9256;52.236;5.712;2023-07-08T04:55:33;17.50;99.90
18260;DHT22;9256;52.236;5.712;2023-07-08T04:58:01;17.50;99.90
18260;DHT22;9256;52.236;5.712;2023-07-08T05:00:28;17.60;99.90
18260;DHT22;9256;52.236;5.712;2023-07-08T05:02:55;17.60;99.90
18260;DHT22;9256;52.236;5.712;2023-07-08T05:05:24;17.70;99.90
18260;DHT22;9256;52.236;5.712;2023-07-08T05:07:51;17.80;99.90
18260;DHT22;9256;52.236;5.712;2023-07-08T05:10:19;17.90;99.90
18260;DHT22;9256;52.236;5.712;2023-07-08T05:12:46;17.90;99.90
18260;DHT22;9256;52.236;5.712;2023-07-08T05:15:14;18.10;99.90
18260;DHT22;9256;52.236;5.712;2023-07-08T05:17:42;18.10;99.90
18260;DHT22;9256;52.236;5.712;2023-07-08T05:20:11;18.10;99.90
18260;DHT22;9256;52.236;5.712;2023-07-08T05:22:40;18.30;99.90
18260;DHT22;9256;52.236;5.712;2023-07-08T05:25:08;18.40;99.90
18260;DHT22;9256;52.236;5.712;2023-07-08T05:27:36;18.40;99.90
18260;DHT22;9256;52.236;5.712;2023-07-08T05:30:04;18.50;99.90
18260;DHT22;9256;52.236;5.712;2023-07-08T05:32:32;18.60;99.90
18260;DHT22;9256;52.236;5.712;2023-07-08T05:34:58;18.60;99.90
18260;DHT22;9256;52.236;5.712;2023-07-08T05:37:25;18.70;99.90
18260;DHT22;9256;52.236;5.712;2023-07-08T05:39:55;18.80;99.90
18260;DHT22;9256;52.236;5.712;2023-07-08T05:42:26;18.90;99.90
18260;DHT22;9256;52.236;5.712;2023-07-08T05:44:53;19.00;99.90
18260;DHT22;9256;52.236;5.712;2023-07-08T05:47:22;19.20;99.90
18260;DHT22;9256;52.236;5.712;2023-07-08T05:49:49;19.20;99.90
18260;DHT22;9256;52.236;5.712;2023-07-08T05:52:16;19.30;99.90
18260;DHT22;9256;52.236;5.712;2023-07-08T05:54:43;19.40;99.90
18260;DHT22;9256;52.236;5.712;2023-07-08T05:57:12;19.40;99.90
18260;DHT22;9256;52.236;5.712;2023-07-08T05:59:39;19.50;99.90
18260;DHT22;9256;52.236;5.712;2023-07-08T06:02:06;19.60;99.90
18260;DHT22;9256;52.236;5.712;2023-07-08T06:04:33;19.80;99.90
18260;DHT22;9256;52.236;5.712;2023-07-08T06:07:00;19.80;99.90
18260;DHT22;9256;52.236;5.712;2023-07-08T06:09:27;19.90;99.90
18260;DHT22;9256;52.236;5.712;2023-07-08T06:11:54;20.00;99.90
18260;DHT22;9256;52.236;5.712;2023-07-08T06:14:23;20.00;99.90
18260;DHT22;9256;52.236;5.712;2023-07-08T06:16:50;20.10;99.90
18260;DHT22;9256;52.236;5.712;2023-07-08T06:19:17;20.20;99.90
18260;DHT22;9256;52.236;5.712;2023-07-08T06:21:44;20.40;99.90
18260;DHT22;9256;52.236;5.712;2023-07-08T06:24:11;20.40;99.90
18260;DHT22;9256;52.236;5.712;2023-07-08T06:26:38;20.50;99.90
18260;DHT22;9256;52.236;5.712;2023-07-08T06:29:05;20.70;99.90
18260;DHT22;9256;52.236;5.712;2023-07-08T06:31:33;20.80;99.90
18260;DHT22;9256;52.236;5.712;2023-07-08T06:34:00;20.80;99.90
18260;DHT22;9256;52.236;5.712;2023-07-08T06:36:27;20.90;99.90
18260;DHT22;9256;52.236;5.712;2023-07-08T06:38:54;21.10;99.90
18260;DHT22;9256;52.236;5.712;2023-07-08T06:41:21;21.20;99.90
18260;DHT22;9256;52.236;5.712;2023-07-08T06:43:48;21.40;99.90
18260;DHT22;9256;52.236;5.712;2023-07-08T06:46:15;21.40;99.90
18260;DHT22;9256;52.236;5.712;2023-07-08T06:48:43;21.50;99.90
18260;DHT22;9256;52.236;5.712;2023-07-08T06:51:10;21.50;99.90
18260;DHT22;9256;52.236;5.712;2023-07-08T06:53:37;21.60;99.90
18260;DHT22;9256;52.236;5.712;2023-07-08T06:56:04;21.70;99.90
18260;DHT22;9256;52.236;5.712;2023-07-08T06:58:31;21.80;99.90
18260;DHT22;9256;52.236;5.712;2023-07-08T07:00:58;21.80;99.90
18260;DHT22;9256;52.236;5.712;2023-07-08T07:03:25;21.90;99.90
18260;DHT22;9256;52.236;5.712;2023-07-08T07:05:53;22.00;99.90
18260;DHT22;9256;52.236;5.712;2023-07-08T07:08:20;22.10;99.90
18260;DHT22;9256;52.236;5.712;2023-07-08T07:10:47;22.20;99.90
18260;DHT22;9256;52.236;5.712;2023-07-08T07:13:15;22.40;99.90
18260;DHT22;9256;52.236;5.712;2023-07-08T07:15:42;22.50;99.90
18260;DHT22;9256;52.236;5.712;2023-07-08T07:18:09;22.70;99.90
18260;DHT22;9256;52.236;5.712;2023-07-08T07:20:37;22.80;99.90
18260;DHT22;9256;52.236;5.712;2023-07-08T07:23:05;22.90;99.90
18260;DHT22;9256;52.236;5.712;2023-07-08T07:25:32;23.10;99.90
18260;DHT22;9256;52.236;5.712;2023-07-08T07:27:59;23.20;99.90
18260;DHT22;9256;52.236;5.712;2023-07-08T07:30:26;23.20;99.90
18260;DHT22;9256;52.236;5.712;2023-07-08T07:32:53;23.30;99.90
18260;DHT22;9256;52.236;5.712;2023-07-08T07:35:21;23.60;99.90
18260;DHT22;9256;52.236;5.712;2023-07-08T07:37:48;23.80;99.90
18260;DHT22;9256;52.236;5.712;2023-07-08T07:40:17;23.90;99.90
18260;DHT22;9256;52.236;5.712;2023-07-08T07:42:45;24.00;99.90
18260;DHT22;9256;52.236;5.712;2023-07-08T07:45:13;24.30;99.90
18260;DHT22;9256;52.236;5.712;2023-07-08T07:47:40;24.30;99.90
18260;DHT22;9256;52.236;5.712;2023-07-08T07:50:09;24.50;99.90
18260;DHT22;9256;52.236;5.712;2023-07-08T07:52:36;24.60;99.90
18260;DHT22;9256;52.236;5.712;2023-07-08T07:55:04;24.60;99.90
18260;DHT22;9256;52.236;5.712;2023-07-08T07:57:32;24.80;99.90
18260;DHT22;9256;52.236;5.712;2023-07-08T07:59:59;24.90;99.90
18260;DHT22;9256;52.236;5.712;2023-07-08T08:02:26;25.10;99.90
18260;DHT22;9256;52.236;5.712;2023-07-08T08:04:53;25.30;99.90
18260;DHT22;9256;52.236;5.712;2023-07-08T08:07:20;25.40;99.90
18260;DHT22;9256;52.236;5.712;2023-07-08T08:09:47;25.50;99.90
18260;DHT22;9256;52.236;5.712;2023-07-08T08:12:14;25.60;99.90
18260;DHT22;9256;52.236;5.712;2023-07-08T08:14:45;25.60;99.90
18260;DHT22;9256;52.236;5.712;2023-07-08T08:17:12;25.80;99.90
18260;DHT22;9256;52.236;5.712;2023-07-08T08:19:39;25.90;99.90
18260;DHT22;9256;52.236;5.712;2023-07-08T08:22:06;26.00;99.90
18260;DHT22;9256;52.236;5.712;2023-07-08T08:24:33;26.10;99.90
18260;DHT22;9256;52.236;5.712;2023-07-08T08:27:00;26.20;99.90
18260;DHT22;9256;52.236;5.712;2023-07-08T08:29:27;26.50;99.90
18260;DHT22;9256;52.236;5.712;2023-07-08T08:31:55;26.50;99.90
18260;DHT22;9256;52.236;5.712;2023-07-08T08:34:22;26.60;99.90
18260;DHT22;9256;52.236;5.712;2023-07-08T08:36:49;26.70;99.90
18260;DHT22;9256;52.236;5.712;2023-07-08T08:39:16;26.80;99.90
18260;DHT22;9256;52.236;5.712;2023-07-08T08:41:43;26.80;99.90
18260;DHT22;9256;52.236;5.712;2023-07-08T08:44:14;26.90;99.90
18260;DHT22;9256;52.236;5.712;2023-07-08T08:46:45;27.10;99.90
18260;DHT22;9256;52.236;5.712;2023-07-08T08:49:23;27.10;99.90
18260;DHT22;9256;52.236;5.712;2023-07-08T08:51:52;27.40;99.90
18260;DHT22;9256;52.236;5.712;2023-07-08T08:54:20;27.30;99.90
18260;DHT22;9256;52.236;5.712;2023-07-08T08:56:54;27.50;99.90
18260;DHT22;9256;52.236;5.712;2023-07-08T08:59:35;27.40;99.90
18260;DHT22;9256;52.236;5.712;2023-07-08T09:02:19;27.40;99.90
18260;DHT22;9256;52.236;5.712;2023-07-08T09:04:50;27.50;99.90
18260;DHT22;9256;52.236;5.712;2023-07-08T09:07:19;27.50;99.90
18260;DHT22;9256;52.236;5.712;2023-07-08T09:09:52;27.70;99.90
18260;DHT22;9256;52.236;5.712;2023-07-08T09:12:24;27.80;99.90
18260;DHT22;9256;52.236;5.712;2023-07-08T09:14:52;27.90;99.90
18260;DHT22;9256;52.236;5.712;2023-07-08T09:17:22;28.20;99.90
18260;DHT22;9256;52.236;5.712;2023-07-08T09:19:55;28.40;99.90
18260;DHT22;9256;52.236;5.712;2023-07-08T09:22:30;28.40;99.90
18260;DHT22;9256;52.236;5.712;2023-07-08T09:25:03;28.50;99.90
18260;DHT22;9256;52.236;5.712;2023-07-08T09:27:31;28.60;99.90
18260;DHT22;9256;52.236;5.712;2023-07-08T09:29:58;28.70;99.90
18260;DHT22;9256;52.236;5.712;2023-07-08T09:32:27;28.70;99.90
18260;DHT22;9256;52.236;5.712;2023-07-08T09:35:02;28.80;99.90
18260;DHT22;9256;52.236;5.712;2023-07-08T09:37:31;29.00;99.90
18260;DHT22;9256;52.236;5.712;2023-07-08T09:40:00;29.00;99.90
18260;DHT22;9256;52.236;5.712;2023-07-08T09:42:30;29.30;99.90
18260;DHT22;9256;52.236;5.712;2023-07-08T09:45:00;29.40;99.90
18260;DHT22;9256;52.236;5.712;2023-07-08T09:47:29;29.40;99.90
18260;DHT22;9256;52.236;5.712;2023-07-08T09:50:01;29.70;99.90
18260;DHT22;9256;52.236;5.712;2023-07-08T09:52:30;29.70;99.90
18260;DHT22;9256;52.236;5.712;2023-07-08T09:54:57;29.70;99.90
18260;DHT22;9256;52.236;5.712;2023-07-08T09:57:29;29.90;99.90
18260;DHT22;9256;52.236;5.712;2023-07-08T09:59:59;30.10;99.90
18260;DHT22;9256;52.236;5.712;2023-07-08T10:02:31;30.10;99.90
18260;DHT22;9256;52.236;5.712;2023-07-08T10:05:01;30.20;99.90
18260;DHT22;9256;52.236;5.712;2023-07-08T10:07:30;30.40;99.90
18260;DHT22;9256;52.236;5.712;2023-07-08T10:10:00;30.60;99.90
18260;DHT22;9256;52.236;5.712;2023-07-08T10:12:30;30.60;99.90
18260;DHT22;9256;52.236;5.712;2023-07-08T10:15:00;30.60;99.90
18260;DHT22;9256;52.236;5.712;2023-07-08T10:17:28;30.30;99.90
18260;DHT22;9256;52.236;5.712;2023-07-08T10:19:56;30.80;99.90
18260;DHT22;9256;52.236;5.712;2023-07-08T10:22:35;30.80;99.90
18260;DHT22;9256;52.236;5.712;2023-07-08T10:25:13;31.10;99.90
18260;DHT22;9256;52.236;5.712;2023-07-08T10:27:49;31.10;99.90
18260;DHT22;9256;52.236;5.712;2023-07-08T10:30:22;31.00;99.90
18260;DHT22;9256;52.236;5.712;2023-07-08T10:33:05;30.80;99.90
18260;DHT22;9256;52.236;5.712;2023-07-08T10:35:41;31.00;99.90
18260;DHT22;9256;52.236;5.712;2023-07-08T10:38:25;31.10;99.90
18260;DHT22;9256;52.236;5.712;2023-07-08T10:41:00;31.00;99.90
18260;DHT22;9256;52.236;5.712;2023-07-08T10:43:46;31.10;99.90
18260;DHT22;9256;52.236;5.712;2023-07-08T10:46:24;31.30;99.90
18260;DHT22;9256;52.236;5.712;2023-07-08T10:49:07;31.40;99.90
18260;DHT22;9256;52.236;5.712;2023-07-08T10:51:44;31.20;99.90
18260;DHT22;9256;52.236;5.712;2023-07-08T10:54:29;31.20;99.90
18260;DHT22;9256;52.236;5.712;2023-07-08T10:57:07;31.40;99.90
18260;DHT22;9256;52.236;5.712;2023-07-08T10:59:44;31.60;99.90
18260;DHT22;9256;52.236;5.712;2023-07-08T11:05:32;31.90;99.90
18260;DHT22;9256;52.236;5.712;2023-07-08T11:08:08;32.10;99.90
18260;DHT22;9256;52.236;5.712;2023-07-08T11:10:44;32.20;99.90
18260;DHT22;9256;52.236;5.712;2023-07-08T11:13:16;32.20;99.90
18260;DHT22;9256;52.236;5.712;2023-07-08T11:15:48;32.40;99.90
18260;DHT22;9256;52.236;5.712;2023-07-08T11:18:35;32.40;99.90
18260;DHT22;9256;52.236;5.712;2023-07-08T11:21:09;32.20;99.90
18260;DHT22;9256;52.236;5.712;2023-07-08T11:23:41;32.20;99.90
18260;DHT22;9256;52.236;5.712;2023-07-08T11:26:18;32.40;99.90
18260;DHT22;9256;52.236;5.712;2023-07-08T11:28:46;32.20;99.90
18260;DHT22;9256;52.236;5.712;2023-07-08T11:31:15;32.20;99.90
18260;DHT22;9256;52.236;5.712;2023-07-08T11:33:43;32.50;99.90
18260;DHT22;9256;52.236;5.712;2023-07-08T11:36:10;33.00;99.90
18260;DHT22;9256;52.236;5.712;2023-07-08T11:38:47;33.30;99.90
18260;DHT22;9256;52.236;5.712;2023-07-08T11:41:18;33.20;99.90
18260;DHT22;9256;52.236;5.712;2023-07-08T11:43:48;33.10;99.90
18260;DHT22;9256;52.236;5.712;2023-07-08T11:46:19;33.20;99.90
18260;DHT22;9256;52.236;5.712;2023-07-08T11:48:49;33.40;99.90
18260;DHT22;9256;52.236;5.712;2023-07-08T11:51:20;33.20;99.90
18260;DHT22;9256;52.236;5.712;2023-07-08T11:53:50;33.30;99.90
18260;DHT22;9256;52.236;5.712;2023-07-08T11:56:24;33.40;99.90
18260;DHT22;9256;52.236;5.712;2023-07-08T11:59:04;33.10;99.90
18260;DHT22;9256;52.236;5.712;2023-07-08T12:01:37;33.00;99.90
18260;DHT22;9256;52.236;5.712;2023-07-08T12:04:20;33.40;99.90
18260;DHT22;9256;52.236;5.712;2023-07-08T12:07:02;33.40;99.90
18260;DHT22;9256;52.236;5.712;2023-07-08T12:09:36;33.60;99.90
18260;DHT22;9256;52.236;5.712;2023-07-08T12:12:07;33.60;99.90
18260;DHT22;9256;52.236;5.712;2023-07-08T12:14:39;33.60;99.90
18260;DHT22;9256;52.236;5.712;2023-07-08T12:17:10;33.80;99.90
18260;DHT22;9256;52.236;5.712;2023-07-08T12:19:40;33.70;99.90
18260;DHT22;9256;52.236;5.712;2023-07-08T12:22:10;33.90;99.90
18260;DHT22;9256;52.236;5.712;2023-07-08T12:24:38;33.90;99.90
18260;DHT22;9256;52.236;5.712;2023-07-08T12:27:09;33.80;99.90
18260;DHT22;9256;52.236;5.712;2023-07-08T12:29:36;33.90;99.90
18260;DHT22;9256;52.236;5.712;2023-07-08T12:32:04;34.10;99.90
18260;DHT22;9256;52.236;5.712;2023-07-08T12:34:32;34.50;99.90
18260;DHT22;9256;52.236;5.712;2023-07-08T12:36:59;34.50;99.90
18260;DHT22;9256;52.236;5.712;2023-07-08T12:39:26;34.80;99.90
18260;DHT22;9256;52.236;5.712;2023-07-08T12:41:53;34.90;99.90
18260;DHT22;9256;52.236;5.712;2023-07-08T12:44:26;34.70;99.90
18260;DHT22;9256;52.236;5.712;2023-07-08T12:46:55;34.30;99.90
18260;DHT22;9256;52.236;5.712;2023-07-08T12:49:22;34.50;99.90
18260;DHT22;9256;52.236;5.712;2023-07-08T12:51:52;35.10;99.90
18260;DHT22;9256;52.236;5.712;2023-07-08T12:54:19;35.30;99.90
18260;DHT22;9256;52.236;5.712;2023-07-08T12:56:47;35.40;99.90
18260;DHT22;9256;52.236;5.712;2023-07-08T13:08:12;36.10;99.90
18260;DHT22;9256;52.236;5.712;2023-07-08T13:10:40;36.30;99.90
18260;DHT22;9256;52.236;5.712;2023-07-08T13:13:12;36.20;99.90
18260;DHT22;9256;52.236;5.712;2023-07-08T13:15:41;36.00;99.90
18260;DHT22;9256;52.236;5.712;2023-07-08T13:18:14;35.50;99.90
18260;DHT22;9256;52.236;5.712;2023-07-08T13:20:42;36.40;99.90
18260;DHT22;9256;52.236;5.712;2023-07-08T20:54:24;24.40;99.90
18260;DHT22;9256;52.236;5.712;2023-07-08T20:56:51;24.20;99.90
18260;DHT22;9256;52.236;5.712;2023-07-08T20:59:18;24.10;99.90
18260;DHT22;9256;52.236;5.712;2023-07-08T21:01:46;24.00;99.90
18260;DHT22;9256;52.236;5.712;2023-07-08T21:04:14;23.90;99.90
18260;DHT22;9256;52.236;5.712;2023-07-08T21:06:41;23.80;99.90
18260;DHT22;9256;52.236;5.712;2023-07-08T21:09:10;23.80;99.90
18260;DHT22;9256;52.236;5.712;2023-07-08T21:11:38;23.70;99.90
18260;DHT22;9256;52.236;5.712;2023-07-08T21:14:05;23.70;99.90
18260;DHT22;9256;52.236;5.712;2023-07-08T21:16:32;23.70;99.90
18260;DHT22;9256;52.236;5.712;2023-07-08T21:18:59;23.60;99.90
18260;DHT22;9256;52.236;5.712;2023-07-08T21:21:27;23.60;99.90
18260;DHT22;9256;52.236;5.712;2023-07-08T21:23:54;23.50;99.90
18260;DHT22;9256;52.236;5.712;2023-07-08T21:26:24;23.50;99.90
18260;DHT22;9256;52.236;5.712;2023-07-08T21:28:53;23.40;99.90
18260;DHT22;9256;52.236;5.712;2023-07-08T21:31:22;23.40;99.90
18260;DHT22;9256;52.236;5.712;2023-07-08T21:33:49;23.30;99.90
18260;DHT22;9256;52.236;5.712;2023-07-08T21:36:21;23.30;99.90
18260;DHT22;9256;52.236;5.712;2023-07-08T21:38:51;23.20;99.90
18260;DHT22;9256;52.236;5.712;2023-07-08T21:41:19;23.20;99.90
18260;DHT22;9256;52.236;5.712;2023-07-08T21:43:46;23.10;99.90
18260;DHT22;9256;52.236;5.712;2023-07-08T21:46:13;23.10;99.90
18260;DHT22;9256;52.236;5.712;2023-07-08T21:48:40;23.00;99.90
18260;DHT22;9256;52.236;5.712;2023-07-08T21:51:18;23.00;99.90
18260;DHT22;9256;52.236;5.712;2023-07-08T21:53:48;22.90;99.90
18260;DHT22;9256;52.236;5.712;2023-07-08T21:56:16;22.90;99.90
18260;DHT22;9256;52.236;5.712;2023-07-08T21:58:43;22.90;99.90
18260;DHT22;9256;52.236;5.712;2023-07-08T22:01:16;22.90;99.90
18260;DHT22;9256;52.236;5.712;2023-07-08T22:03:44;22.80;99.90
18260;DHT22;9256;52.236;5.712;2023-07-08T22:06:11;22.80;99.90
18260;DHT22;9256;52.236;5.712;2023-07-08T22:08:38;22.70;99.90
18260;DHT22;9256;52.236;5.712;2023-07-08T22:11:11;22.70;99.90
18260;DHT22;9256;52.236;5.712;2023-07-08T22:13:40;22.70;99.90
18260;DHT22;9256;52.236;5.712;2023-07-08T22:16:10;22.70;99.90
18260;DHT22;9256;52.236;5.712;2023-07-08T22:18:38;22.60;99.90
18260;DHT22;9256;52.236;5.712;2023-07-08T22:21:12;22.60;99.90
18260;DHT22;9256;52.236;5.712;2023-07-08T22:23:41;22.50;99.90
18260;DHT22;9256;52.236;5.712;2023-07-08T22:26:08;22.60;99.90
18260;DHT22;9256;52.236;5.712;2023-07-08T22:28:35;22.60;99.90
18260;DHT22;9256;52.236;5.712;2023-07-08T22:31:08;22.60;99.90
18260;DHT22;9256;52.236;5.712;2023-07-08T22:33:40;22.50;99.90
18260;DHT22;9256;52.236;5.712;2023-07-08T22:36:07;22.40;99.90
18260;DHT22;9256;52.236;5.712;2023-07-08T22:38:34;22.50;99.90
18260;DHT22;9256;52.236;5.712;2023-07-08T22:41:01;22.40;99.90
18260;DHT22;9256;52.236;5.712;2023-07-08T22:43:30;22.40;99.90
18260;DHT22;9256;52.236;5.712;2023-07-08T22:45:57;22.40;99.90
18260;DHT22;9256;52.236;5.712;2023-07-08T22:48:26;22.30;99.90
18260;DHT22;9256;52.236;5.712;2023-07-08T22:50:54;22.30;99.90
18260;DHT22;9256;52.236;5.712;2023-07-08T22:53:27;22.30;99.90
18260;DHT22;9256;52.236;5.712;2023-07-08T22:55:55;22.20;99.90
18260;DHT22;9256;52.236;5.712;2023-07-08T22:58:25;22.20;99.90
18260;DHT22;9256;52.236;5.712;2023-07-08T23:00:52;22.20;99.90
18260;DHT22;9256;52.236;5.712;2023-07-08T23:03:20;22.10;99.90
18260;DHT22;9256;52.236;5.712;2023-07-08T23:05:50;22.10;99.90
18260;DHT22;9256;52.236;5.712;2023-07-08T23:08:25;22.00;99.90
18260;DHT22;9256;52.236;5.712;2023-07-08T23:10:52;22.00;99.90
18260;DHT22;9256;52.236;5.712;2023-07-08T23:13:30;22.00;99.90
18260;DHT22;9256;52.236;5.712;2023-07-08T23:15:58;22.00;99.90
18260;DHT22;9256;52.236;5.712;2023-07-08T23:18:25;21.90;99.90
18260;DHT22;9256;52.236;5.712;2023-07-08T23:20:54;21.90;99.90
18260;DHT22;9256;52.236;5.712;2023-07-08T23:23:21;21.80;99.90
18260;DHT22;9256;52.236;5.712;2023-07-08T23:25:48;21.80;99.90
18260;DHT22;9256;52.236;5.712;2023-07-08T23:28:16;21.80;99.90
18260;DHT22;9256;52.236;5.712;2023-07-08T23:30:43;21.80;99.90
18260;DHT22;9256;52.236;5.712;2023-07-08T23:33:14;21.70;99.90
18260;DHT22;9256;52.236;5.712;2023-07-08T23:35:41;21.70;99.90
18260;DHT22;9256;52.236;5.712;2023-07-08T23:38:15;21.60;99.90
18260;DHT22;9256;52.236;5.712;2023-07-08T23:40:44;21.60;99.90